Time;durP1;ratioP1;P1;durP2;ratioP2;P2;SDS_P1;SDS_P2;PMS_P1;PMS_P2;Temp;Humidity;BMP_temperature;BMP_pressure;BME280_temperature;BME280_humidity;BME280_pressure;Samples;Min_cycle;Max_cycle;Signal;HPM_P1;HPM_P2
2022/03/23 00:02:05;;;;;;;67.35;53.70;;;;;;;10.25;54.03;102912.09;4766022;29;118558;-83
2022/03/23 00:04:47;;;;;;;64.68;50.90;;;;;;;10.02;53.70;102874.88;4769036;29;120173;-85
2022/03/23 00:07:17;;;;;;;71.18;53.67;;;;;;;10.23;54.11;102920.72;4764713;29;120438;-86
2022/03/23 00:09:47;;;;;;;63.13;49.22;;;;;;;10.30;53.17;102915.22;4767902;29;118517;-84
2022/03/23 00:12:18;;;;;;;67.30;53.00;;;;;;;10.45;53.47;102926.97;4780071;29;119970;-86
2022/03/23 00:14:44;;;;;;;67.03;52.80;;;;;;;10.23;53.19;102904.25;4775200;29;118405;-84
2022/03/23 00:17:14;;;;;;;61.40;51.38;;;;;;;10.33;53.39;102919.91;4784473;29;119401;-83
2022/03/23 00:20:26;;;;;;;63.95;51.85;;;;;;;10.18;53.78;102898.38;4785303;29;119150;-84
2022/03/23 00:22:59;;;;;;;69.38;54.85;;;;;;;10.20;53.82;102905.03;4781172;29;119485;-85
2022/03/23 00:25:24;;;;;;;69.72;54.30;;;;;;;10.41;53.82;102932.47;4767636;29;121772;-85
2022/03/23 00:28:05;;;;;;;70.28;55.03;;;;;;;10.30;53.72;102908.94;4783286;29;120239;-84
2022/03/23 00:30:34;;;;;;;71.32;54.03;;;;;;;10.23;53.70;102895.25;4765562;29;118461;-84
2022/03/23 00:33:02;;;;;;;68.35;54.03;;;;;;;10.14;53.28;102873.66;4757728;29;122030;-84
2022/03/23 00:35:34;;;;;;;67.70;54.33;;;;;;;10.01;53.85;102858.81;4773223;29;123521;-84
2022/03/23 00:38:02;;;;;;;68.68;53.55;;;;;;;10.42;53.22;102923.06;4787318;29;119328;-85
2022/03/23 00:40:28;;;;;;;65.22;52.95;;;;;;;10.09;52.43;102882.28;4771284;29;122623;-86
2022/03/23 00:43:01;;;;;;;66.10;52.38;;;;;;;9.94;53.07;102873.31;4784933;29;118493;-83
2022/03/23 00:45:32;;;;;;;68.00;52.80;;;;;;;10.07;52.89;102895.63;4785093;29;119146;-83
2022/03/23 00:48:00;;;;;;;67.40;53.30;;;;;;;9.95;52.90;102887.81;4780737;29;119796;-83
2022/03/23 00:50:26;;;;;;;69.05;55.30;;;;;;;9.91;53.34;102881.50;4785682;29;118525;-83
2022/03/23 00:52:54;;;;;;;67.93;54.95;;;;;;;9.73;52.76;102871.34;4791702;29;120623;-82
2022/03/23 00:55:20;;;;;;;72.55;55.25;;;;;;;9.70;53.88;102874.88;4792443;29;122782;-82
2022/03/23 00:57:45;;;;;;;73.45;56.65;;;;;;;9.70;53.91;102880.34;4779526;29;119526;-84
2022/03/23 01:00:17;;;;;;;68.70;54.08;;;;;;;9.57;53.54;102870.94;4790881;29;119277;-82
2022/03/23 01:02:45;;;;;;;70.55;55.60;;;;;;;9.52;53.97;102854.88;4819768;23;118849;-96
2022/03/23 01:05:58;;;;;;;70.97;54.92;;;;;;;9.97;53.93;102926.56;4804892;29;120145;-95
2022/03/23 01:08:31;;;;;;;67.20;55.33;;;;;;;9.82;54.27;102904.63;4785469;29;123173;-96
2022/03/23 01:11:06;;;;;;;69.68;54.85;;;;;;;9.66;53.77;102876.81;4766635;29;119112;-95
2022/03/23 01:14:07;;;;;;;73.55;55.03;;;;;;;9.83;53.87;102891.69;4775527;29;119796;-95
2022/03/23 01:20:45;;;;;;;72.72;55.47;;;;;;;9.54;53.52;102858.81;4780037;29;118517;-95
2022/03/23 01:23:36;;;;;;;75.35;57.78;;;;;;;9.97;54.04;102912.88;4727742;29;122197;-96
2022/03/23 01:26:11;;;;;;;73.53;57.47;;;;;;;9.85;54.14;102900.31;4761416;29;118957;-95
2022/03/23 01:28:37;;;;;;;71.40;56.22;;;;;;;9.72;54.00;102880.75;4754445;29;122255;-96
2022/03/23 01:43:55;;;;;;;80.60;61.28;;;;;;;9.57;54.13;102859.97;4891308;23;122538;-85
2022/03/23 01:46:22;;;;;;;73.40;59.50;;;;;;;9.56;54.16;102857.63;4805603;29;119404;-84
2022/03/23 01:48:52;;;;;;;76.20;59.65;;;;;;;9.53;54.11;102854.50;4839484;29;119252;-85
2022/03/23 01:51:24;;;;;;;78.35;62.22;;;;;;;9.53;54.31;102842.75;4819629;29;118374;-84
2022/03/23 01:53:53;;;;;;;83.80;64.88;;;;;;;9.70;54.36;102861.19;4838281;29;119252;-85
2022/03/23 01:56:22;;;;;;;75.05;58.30;;;;;;;9.70;54.05;102874.06;4818543;29;120026;-84
2022/03/23 01:58:50;;;;;;;79.88;61.10;;;;;;;9.61;53.81;102855.28;4803325;29;119373;-83
2022/03/23 02:01:25;;;;;;;81.68;61.53;;;;;;;9.93;54.04;102903.84;4807521;23;120798;31
2022/03/23 02:03:54;;;;;;;86.32;65.13;;;;;;;9.45;54.05;102824.72;4806042;29;121591;-85
2022/03/23 02:06:20;;;;;;;84.32;65.80;;;;;;;9.83;54.49;102887.00;4810854;29;119371;-86
2022/03/23 02:08:49;;;;;;;88.05;67.50;;;;;;;9.50;54.15;102836.09;4818399;29;119986;-86
2022/03/23 02:11:32;;;;;;;88.32;66.47;;;;;;;9.42;55.13;102825.50;4836109;29;119015;-85
2022/03/23 02:14:03;;;;;;;84.35;65.45;;;;;;;9.40;54.70;102825.13;4805723;29;122663;-82
2022/03/23 02:16:41;;;;;;;89.47;68.43;;;;;;;9.59;54.43;102846.66;4808425;29;122750;-84
2022/03/23 02:19:10;;;;;;;92.43;71.22;;;;;;;9.52;54.51;102833.75;4823922;29;118868;-84
2022/03/23 02:21:49;;;;;;;90.45;70.13;;;;;;;9.93;54.67;102893.66;4819735;23;122051;-85
2022/03/23 02:24:16;;;;;;;93.13;72.45;;;;;;;9.48;54.61;102824.75;4789641;29;120826;-85
2022/03/23 02:26:45;;;;;;;96.80;74.82;;;;;;;9.64;54.89;102851.75;4803299;29;118454;-85
2022/03/23 02:29:18;;;;;;;95.22;73.55;;;;;;;9.58;54.49;102839.63;4805569;29;119244;-85
2022/03/23 02:31:46;;;;;;;95.57;74.45;;;;;;;9.64;54.63;102862.72;4816562;29;120031;-84
2022/03/23 02:34:19;;;;;;;98.40;76.88;;;;;;;9.50;54.92;102838.06;4807494;29;119073;-85
2022/03/23 02:36:50;;;;;;;99.53;75.15;;;;;;;9.72;54.73;102861.56;4803382;29;119982;-85
2022/03/23 02:39:29;;;;;;;97.63;75.60;;;;;;;9.59;54.72;102843.94;4802820;29;119228;-85
2022/03/23 02:42:04;;;;;;;99.72;76.82;;;;;;;9.48;54.80;102823.97;4775277;29;120885;-85
2022/03/23 02:44:32;;;;;;;102.85;78.65;;;;;;;9.63;55.08;102844.72;4786955;29;120037;-84
2022/03/23 02:46:58;;;;;;;103.20;78.38;;;;;;;9.68;54.79;102860.75;4803452;29;118392;-85
2022/03/23 02:49:26;;;;;;;104.05;79.15;;;;;;;9.73;55.02;102865.88;4786814;29;120115;-84
2022/03/23 02:51:52;;;;;;;108.65;82.13;;;;;;;9.38;55.29;102820.03;4784569;29;121793;-85
2022/03/23 03:03:08;;;;;;;108.45;82.13;;;;;;;9.32;55.29;102823.56;4728785;29;121185;-85
2022/03/23 03:05:36;;;;;;;113.85;84.43;;;;;;;9.66;55.78;102860.38;4786536;29;120258;-84
2022/03/23 03:10:48;;;;;;;110.18;84.22;;;;;;;9.51;55.33;102843.16;4786831;29;120416;-83
2022/03/23 03:13:14;;;;;;;111.70;82.97;;;;;;;9.74;55.81;102875.66;4785858;29;122858;-84
2022/03/23 03:15:44;;;;;;;103.90;80.22;;;;;;;9.33;54.77;102823.16;4817736;29;119381;-84
2022/03/23 03:18:17;;;;;;;100.18;78.00;;;;;;;9.76;54.88;102880.75;4818570;29;119208;-85
2022/03/23 03:20:43;;;;;;;102.60;78.68;;;;;;;9.47;54.16;102849.81;4802879;29;119331;-84
2022/03/23 03:23:11;;;;;;;105.50;79.05;;;;;;;9.31;54.62;102833.72;4788503;29;120155;-84
2022/03/23 03:25:37;;;;;;;99.43;75.32;;;;;;;9.41;53.90;102860.34;4783125;29;122734;-84
2022/03/23 03:28:03;;;;;;;101.68;76.47;;;;;;;9.08;53.47;102825.06;4809718;29;120814;-84
2022/03/23 03:30:28;;;;;;;106.22;79.00;;;;;;;9.19;54.41;102853.25;4800069;29;122028;-84
2022/03/23 03:33:03;;;;;;;104.68;77.72;;;;;;;9.02;54.04;102838.38;4799621;29;121731;-84
2022/03/23 03:35:29;;;;;;;99.32;76.40;;;;;;;8.85;54.60;102817.19;4785376;29;119358;-84
2022/03/23 03:37:55;;;;;;;103.30;76.75;;;;;;;9.29;53.92;102896.31;4783234;29;119148;-84
2022/03/23 03:40:23;;;;;;;102.95;77.30;;;;;;;8.82;54.25;102823.44;4773558;29;121700;-84
2022/03/23 03:42:55;;;;;;;107.85;80.97;;;;;;;8.79;54.79;102827.72;4797088;29;120784;-84
2022/03/23 03:45:27;;;;;;;112.53;82.00;;;;;;;8.69;55.08;102819.47;4783309;29;121578;-84
2022/03/23 03:47:59;;;;;;;103.25;79.32;;;;;;;8.94;55.04;102872.34;4784824;29;118978;-82
2022/03/23 03:50:34;;;;;;;105.50;79.85;;;;;;;8.57;55.15;102818.66;4768611;29;121133;-85
2022/03/23 03:53:02;;;;;;;104.15;77.85;;;;;;;8.52;55.16;102816.28;4755631;29;121512;-84
2022/03/23 03:55:30;;;;;;;105.45;78.47;;;;;;;8.49;54.69;102830.72;4814603;29;119331;-84
2022/03/23 03:57:56;;;;;;;100.30;76.97;;;;;;;8.91;54.87;102901.28;4784328;29;119656;-84
2022/03/23 04:00:22;;;;;;;100.75;78.35;;;;;;;8.46;54.87;102839.69;4754180;29;121810;-85
2022/03/23 04:02:48;;;;;;;96.38;74.30;;;;;;;8.37;54.76;102828.31;4801636;29;119317;-84
2022/03/23 04:05:16;;;;;;;107.75;80.00;;;;;;;8.52;55.23;102856.53;4772252;29;122449;-84
2022/03/23 04:07:41;;;;;;;112.80;84.72;;;;;;;8.40;56.45;102832.25;4782185;29;119303;-84
2022/03/23 04:10:09;;;;;;;114.47;84.78;;;;;;;8.69;56.18;102877.72;4797284;29;120251;-84
2022/03/23 04:12:35;;;;;;;112.32;83.47;;;;;;;8.34;56.08;102823.63;4800656;29;119296;-84
2022/03/23 04:15:04;;;;;;;115.55;84.93;;;;;;;8.82;56.56;102909.06;4769772;29;119324;-84
2022/03/23 04:17:30;;;;;;;110.25;83.32;;;;;;;8.45;55.80;102837.34;4816963;29;120757;-84
2022/03/23 04:19:56;;;;;;;114.85;84.20;;;;;;;8.41;56.80;102831.06;4782708;29;121268;-84
2022/03/23 04:22:33;;;;;;;110.10;81.32;;;;;;;8.36;55.74;102832.22;4798972;29;119445;-84
2022/03/23 04:25:01;;;;;;;109.55;81.60;;;;;;;8.47;55.84;102846.72;4819100;29;121977;-84
2022/03/23 04:27:31;;;;;;;107.97;80.20;;;;;;;8.49;56.05;102838.13;4802157;29;119507;-85
2022/03/23 04:29:56;;;;;;;105.15;78.30;;;;;;;8.49;55.32;102844.38;4786594;29;121421;-85
2022/03/23 04:32:22;;;;;;;115.93;85.75;;;;;;;8.63;55.70;102849.16;4798451;29;123052;-84
2022/03/23 04:34:48;;;;;;;112.10;82.63;;;;;;;8.74;55.95;102860.13;4784908;29;119592;-85
2022/03/23 04:37:14;;;;;;;109.80;81.00;;;;;;;8.65;56.11;102837.81;4815252;29;119411;-84
2022/03/23 04:39:42;;;;;;;98.22;74.00;;;;;;;8.61;55.19;102835.88;4785776;29;123025;-84
2022/03/23 04:42:08;;;;;;;106.53;79.18;;;;;;;8.99;55.09;102882.94;4755194;29;119362;-85
2022/03/23 04:44:44;;;;;;;102.63;76.97;;;;;;;8.53;54.65;102823.31;4756910;29;121703;-84
2022/03/23 04:47:12;;;;;;;112.13;82.22;;;;;;;8.64;55.50;102837.03;4805738;29;122400;-84
2022/03/23 04:49:40;;;;;;;115.32;81.60;;;;;;;8.75;55.38;102846.06;4785789;29;119369;-84
2022/03/23 04:52:11;;;;;;;111.53;81.18;;;;;;;8.73;55.33;102839.41;4802251;29;119970;-85
2022/03/23 04:54:37;;;;;;;105.82;80.07;;;;;;;8.81;55.05;102858.22;4788352;29;119532;-84
2022/03/23 04:57:03;;;;;;;108.13;80.25;;;;;;;8.69;55.07;102825.72;4759042;29;121941;-83
2022/03/23 04:59:29;;;;;;;111.20;81.32;;;;;;;8.77;54.64;102848.44;4802354;29;120037;-84
2022/03/23 05:01:57;;;;;;;106.15;79.97;;;;;;;8.85;54.35;102860.97;4758178;29;119410;-84
2022/03/23 05:04:25;;;;;;;109.20;78.68;;;;;;;8.97;54.26;102877.03;4786666;29;119318;-84
2022/03/23 05:06:54;;;;;;;105.07;78.28;;;;;;;8.79;54.39;102844.16;4803106;29;122886;-84
2022/03/23 05:09:20;;;;;;;102.88;78.22;;;;;;;8.77;54.81;102838.28;4819212;29;119370;-82
2022/03/23 05:11:45;;;;;;;107.50;78.93;;;;;;;8.88;54.44;102854.72;4786467;29;122986;-84
2022/03/23 05:14:11;;;;;;;106.65;79.05;;;;;;;8.84;54.20;102856.69;4784980;29;119214;-84
2022/03/23 05:16:40;;;;;;;104.45;78.10;;;;;;;9.09;54.52;102897.81;4785985;29;121868;-84
2022/03/23 05:19:06;;;;;;;106.03;78.07;;;;;;;8.76;54.84;102844.13;4784379;29;121528;-84
2022/03/23 05:21:39;;;;;;;103.75;77.38;;;;;;;8.87;54.47;102864.13;4785345;29;119041;-83
2022/03/23 05:24:05;;;;;;;111.38;82.45;;;;;;;8.98;54.72;102870.41;4817725;29;119122;-84
2022/03/23 05:26:34;;;;;;;105.70;78.25;;;;;;;8.81;54.24;102843.75;4785873;29;119513;-83
2022/03/23 05:29:01;;;;;;;106.47;78.82;;;;;;;8.88;53.86;102855.50;4790348;29;119219;-83
2022/03/23 05:31:27;;;;;;;108.32;77.10;;;;;;;8.83;53.91;102844.94;4787020;29;123704;-84
2022/03/23 05:33:53;;;;;;;104.30;77.35;;;;;;;8.94;54.09;102861.38;4787763;29;119510;-83
2022/03/23 05:36:21;;;;;;;105.00;76.93;;;;;;;9.01;53.96;102882.56;4787359;29;119418;-84
2022/03/23 05:38:49;;;;;;;100.57;76.35;;;;;;;8.95;53.81;102871.16;4801827;29;119297;-84
2022/03/23 05:41:15;;;;;;;104.78;78.10;;;;;;;8.96;53.70;102867.25;4772500;29;118488;-85
2022/03/23 05:43:40;;;;;;;109.05;79.55;;;;;;;8.89;54.36;102850.81;4784758;29;122043;-83
2022/03/23 05:46:06;;;;;;;103.95;76.38;;;;;;;8.92;54.36;102844.56;4773358;29;123303;-85
2022/03/23 05:48:37;;;;;;;107.93;80.03;;;;;;;8.91;53.96;102843.00;4772330;29;119582;-85
2022/03/23 05:51:03;;;;;;;107.00;77.32;;;;;;;9.14;54.45;102870.06;4790968;29;122422;-82
2022/03/23 05:53:36;;;;;;;104.18;77.07;;;;;;;9.09;53.88;102859.50;4787460;29;119299;-84
2022/03/23 05:56:04;;;;;;;102.72;76.80;;;;;;;9.04;53.49;102846.97;4818569;29;119202;-83
2022/03/23 05:58:37;;;;;;;99.75;74.03;;;;;;;9.12;53.48;102856.75;4798816;29;121590;-85
2022/03/23 06:01:05;;;;;;;100.18;73.38;;;;;;;9.15;53.03;102853.25;4777092;29;118606;-84
2022/03/23 06:03:33;;;;;;;107.45;77.50;;;;;;;9.21;53.30;102865.38;4816533;29;121720;-85
2022/03/23 06:06:03;;;;;;;103.53;73.03;;;;;;;9.08;52.75;102842.28;4816507;29;122985;-82
2022/03/23 06:08:28;;;;;;;98.65;72.00;;;;;;;9.31;52.40;102865.81;4787547;29;119184;-84
2022/03/23 06:10:54;;;;;;;97.18;71.63;;;;;;;9.20;52.62;102861.06;4772490;29;119555;-85
2022/03/23 06:13:20;;;;;;;99.47;71.03;;;;;;;9.43;52.47;102888.13;4807055;29;122807;-82
2022/03/23 06:16:02;;;;;;;;;;;;;;;;;;;;;
2022/03/23 06:18:32;;;;;;;92.40;68.90;;;;;;;9.28;52.44;102852.91;4788579;29;119137;-84
2022/03/23 06:21:07;;;;;;;96.78;68.28;;;;;;;9.44;52.72;102876.00;4820546;29;119625;-84
2022/03/23 06:23:34;;;;;;;96.72;69.78;;;;;;;9.41;52.39;102854.06;4819169;29;122183;-85
2022/03/23 06:26:00;;;;;;;91.18;67.97;;;;;;;9.60;51.96;102875.63;4801884;29;122833;-84
2022/03/23 06:28:26;;;;;;;91.93;67.72;;;;;;;9.52;52.32;102858.41;4819929;29;119516;-85
2022/03/23 06:30:52;;;;;;;93.10;68.18;;;;;;;9.63;51.94;102869.38;4758463;29;121879;-82
2022/03/23 06:33:21;;;;;;;91.85;67.05;;;;;;;9.68;51.83;102863.50;4787747;29;122772;-83
2022/03/23 06:35:49;;;;;;;91.82;66.43;;;;;;;9.78;51.63;102879.19;4809590;29;118411;-82
2022/03/23 06:38:17;;;;;;;90.82;67.68;;;;;;;9.83;51.50;102873.28;4820925;29;122811;-82
2022/03/23 06:40:47;;;;;;;94.28;66.00;;;;;;;9.87;51.28;102880.72;4774989;29;118549;-82
2022/03/23 06:43:13;;;;;;;90.32;66.63;;;;;;;10.24;51.32;102927.78;4784718;29;121960;-82
2022/03/23 06:45:40;;;;;;;91.25;66.10;;;;;;;9.93;51.74;102874.47;4785812;29;122649;-82
2022/03/23 06:48:13;;;;;;;91.22;65.45;;;;;;;10.00;51.53;102879.19;4784316;29;119295;-84
2022/03/23 06:50:41;;;;;;;87.10;64.80;;;;;;;10.18;51.60;102907.38;4758022;29;122550;-84
2022/03/23 06:53:07;;;;;;;86.63;65.07;;;;;;;10.59;51.98;102948.09;4786897;29;123085;-84
2022/03/23 06:55:32;;;;;;;91.93;65.60;;;;;;;10.56;51.87;102932.41;4748989;29;120590;-86
2022/03/23 06:57:58;;;;;;;92.13;66.30;;;;;;;10.77;51.85;102957.06;4799130;29;119372;-85
2022/03/23 07:00:23;;;;;;;87.28;65.55;;;;;;;10.79;51.81;102940.19;4794319;29;120639;-87
2022/03/23 07:02:50;;;;;;;86.90;64.45;;;;;;;10.89;51.78;102945.69;4761132;29;119481;-85
2022/03/23 07:05:19;;;;;;;86.82;64.13;;;;;;;11.03;52.08;102951.09;4792440;29;122781;-88
2022/03/23 07:11:10;;;;;;;;;;;;;;;11.25;51.51;102951.03;4760606;29;119456;-87
2022/03/23 07:13:36;;;;;;;86.43;64.03;;;;;;;11.22;51.19;102938.88;4744106;29;120261;-88
2022/03/23 07:16:01;;;;;;;81.88;62.22;;;;;;;11.33;51.08;102936.06;4743608;29;119932;-84
2022/03/23 07:18:27;;;;;;;82.85;60.30;;;;;;;11.41;50.63;102942.31;4730110;29;122394;-88
2022/03/23 07:20:53;;;;;;;80.82;60.67;;;;;;;11.48;51.23;102936.75;4729671;29;120619;-87
2022/03/23 07:23:18;;;;;;;78.80;60.55;;;;;;;11.65;51.01;102955.91;4745571;29;123277;-86
2022/03/23 07:25:44;;;;;;;76.45;60.10;;;;;;;11.73;50.94;102953.09;4743323;29;123041;-86
2022/03/23 07:28:10;;;;;;;73.30;57.67;;;;;;;11.81;50.72;102944.41;4745008;29;119959;-87
2022/03/23 07:30:37;;;;;;;79.70;58.13;;;;;;;11.91;50.26;102942.78;4744068;29;122609;-86
2022/03/23 07:33:03;;;;;;;83.50;58.75;;;;;;;12.07;49.35;102959.56;4743360;29;120091;-88
2022/03/23 07:35:29;;;;;;;77.05;56.05;;;;;;;12.03;48.49;102947.78;4759352;29;119711;-85
2022/03/23 07:37:56;;;;;;;74.55;55.67;;;;;;;12.11;49.86;102949.31;4742896;29;122221;-86
2022/03/23 07:40:21;;;;;;;80.90;55.85;;;;;;;12.14;49.20;102940.25;4750352;29;123706;-86
2022/03/23 07:42:47;;;;;;;74.90;53.47;;;;;;;12.41;49.48;102969.91;4719036;29;122208;-86
2022/03/23 07:45:14;;;;;;;70.25;52.63;;;;;;;12.53;49.30;102956.38;4730400;29;123183;-85
2022/03/23 07:47:40;;;;;;;71.10;50.28;;;;;;;12.56;49.16;102952.84;4762203;29;119845;-86
2022/03/23 07:50:06;;;;;;;69.40;50.95;;;;;;;12.79;48.11;102968.72;4747509;29;122173;-87
2022/03/23 07:52:32;;;;;;;66.85;49.85;;;;;;;12.76;47.71;102947.50;4733456;29;122580;-85
2022/03/23 07:54:58;;;;;;;63.15;47.85;;;;;;;12.95;48.34;102957.13;4746732;29;120406;-86
2022/03/23 07:57:23;;;;;;;65.70;48.35;;;;;;;13.17;47.63;102971.41;4732855;29;122268;-86
2022/03/23 07:59:49;;;;;;;61.75;46.78;;;;;;;13.31;47.92;102970.50;4718211;29;121803;-86
2022/03/23 08:02:14;;;;;;;63.25;46.05;;;;;;;13.37;47.45;102957.81;4752442;29;119928;-86
2022/03/23 08:04:40;;;;;;;62.78;44.80;;;;;;;13.51;47.01;102966.69;4746061;29;120484;-85
2022/03/23 08:07:07;;;;;;;63.33;45.90;;;;;;;13.55;45.91;102963.09;4745267;29;119852;-87
2022/03/23 08:09:33;;;;;;;61.55;45.22;;;;;;;13.69;46.38;102982.97;4761429;29;121885;-85
2022/03/23 08:11:59;;;;;;;59.35;45.05;;;;;;;13.70;45.50;102964.44;4745118;29;122622;-86
2022/03/23 08:14:24;;;;;;;60.60;46.58;;;;;;;13.76;45.32;102971.06;4733111;29;120253;-86
2022/03/23 08:16:52;;;;;;;61.50;46.25;;;;;;;13.86;45.21;102980.34;4731754;29;119928;-86
2022/03/23 08:19:22;;;;;;;61.67;47.72;;;;;;;13.93;46.13;102969.22;4730664;29;123408;-86
2022/03/23 08:21:48;;;;;;;61.33;44.20;;;;;;;14.03;45.25;102982.84;4713201;29;120443;-86
2022/03/23 08:24:14;;;;;;;55.97;42.58;;;;;;;14.07;45.80;102972.53;4767366;29;119783;-86
2022/03/23 08:26:40;;;;;;;55.72;41.67;;;;;;;14.16;44.36;102983.03;4730685;29;119843;-86
2022/03/23 08:29:06;;;;;;;54.20;40.17;;;;;;;14.23;43.96;102971.88;4747528;29;121827;-86
2022/03/23 08:31:32;;;;;;;47.75;35.63;;;;;;;14.32;42.87;102977.63;4746519;29;123024;-85
2022/03/23 08:33:57;;;;;;;50.40;36.85;;;;;;;14.38;42.53;102980.69;4710282;29;120228;-85
2022/03/23 08:36:23;;;;;;;47.22;35.63;;;;;;;14.49;42.99;102983.31;4739835;29;122049;-87
2022/03/23 08:38:48;;;;;;;44.55;35.15;;;;;;;14.52;43.41;102974.19;4732423;29;120502;-86
2022/03/23 08:41:14;;;;;;;45.45;35.20;;;;;;;14.63;41.32;102986.56;4715628;29;120192;-85
2022/03/23 08:43:41;;;;;;;48.90;35.95;;;;;;;14.62;40.96;102973.19;4717111;29;122838;-86
2022/03/23 08:46:07;;;;;;;47.90;34.90;;;;;;;14.71;40.83;102974.22;4749121;29;121049;-86
2022/03/23 08:48:34;;;;;;;45.97;34.30;;;;;;;14.86;42.21;102993.25;4732232;29;122108;-85
2022/03/23 08:51:00;;;;;;;42.58;33.45;;;;;;;14.94;42.11;102980.88;4762962;29;120174;-85
2022/03/23 08:53:26;;;;;;;46.20;34.67;;;;;;;15.09;41.32;102989.66;4731148;29;120438;-85
2022/03/23 08:55:52;;;;;;;50.92;34.75;;;;;;;15.04;39.78;102966.84;4747214;29;121672;-85
2022/03/23 08:58:18;;;;;;;51.40;35.35;;;;;;;15.17;40.39;102975.28;4744041;29;119877;-85
2022/03/23 09:00:44;;;;;;;44.83;34.42;;;;;;;15.24;39.36;102983.41;4759771;29;119746;-86
2022/03/23 09:03:09;;;;;;;45.13;35.58;;;;;;;15.31;40.18;102979.72;4729700;29;122275;-85
2022/03/23 09:05:35;;;;;;;45.58;33.95;;;;;;;15.40;39.81;102979.16;4746923;29;120522;-85
2022/03/23 09:08:01;;;;;;;45.97;34.83;;;;;;;15.41;39.07;102975.97;4764021;29;121000;-84
2022/03/23 09:10:28;;;;;;;43.55;33.88;;;;;;;15.55;40.12;102999.75;4747438;29;123131;-85
2022/03/23 09:12:53;;;;;;;47.90;34.97;;;;;;;15.52;38.79;102978.47;4743843;29;121149;-85
2022/03/23 09:15:19;;;;;;;44.92;33.92;;;;;;;15.54;40.24;102974.06;4724461;29;121689;-84
2022/03/23 09:17:46;;;;;;;47.60;34.25;;;;;;;15.60;39.83;102974.38;4746707;29;122677;-85
2022/03/23 09:20:13;;;;;;;43.72;34.92;;;;;;;15.72;40.35;102987.53;4750443;29;120580;-85
2022/03/23 09:22:40;;;;;;;49.33;35.17;;;;;;;15.73;39.19;102982.78;4740927;29;122722;-84
2022/03/23 09:25:10;;;;;;;43.35;34.05;;;;;;;15.77;39.37;102973.19;4729060;29;122725;-85
2022/03/23 09:27:38;;;;;;;47.67;34.92;;;;;;;15.77;39.48;102969.63;4746954;29;119836;-85
2022/03/23 09:30:08;;;;;;;44.90;34.20;;;;;;;15.89;39.13;102986.34;4733223;29;119953;-85
2022/03/23 09:32:34;;;;;;;44.22;33.90;;;;;;;15.91;39.32;102983.16;4728990;29;119471;-84
2022/03/23 09:35:02;;;;;;;45.47;34.45;;;;;;;15.94;39.42;102983.06;4722228;29;121989;-84
2022/03/23 09:40:14;;;;;;;;;;;;;;;16.03;40.46;102984.44;4719263;29;120321;-84
2022/03/23 09:42:41;;;;;;;39.83;31.20;;;;;;;16.02;39.30;102966.28;4746514;29;122080;-84
2022/03/23 09:45:07;;;;;;;44.60;32.25;;;;;;;16.11;39.22;102980.31;4745406;29;123314;-85
2022/03/23 09:47:33;;;;;;;42.40;31.15;;;;;;;16.01;39.15;102957.19;4741955;29;119557;-84
2022/03/23 09:49:58;;;;;;;41.10;32.15;;;;;;;16.09;38.42;102966.91;4748295;29;121950;-85
2022/03/23 09:52:24;;;;;;;40.85;30.75;;;;;;;16.22;38.65;102973.28;4745734;29;120035;-84
2022/03/23 09:54:50;;;;;;;36.35;29.77;;;;;;;16.17;38.51;102965.50;4731665;29;122011;-85
2022/03/23 09:57:16;;;;;;;40.03;31.83;;;;;;;16.15;37.78;102965.16;4746487;29;120842;-85
2022/03/23 09:59:42;;;;;;;42.33;31.23;;;;;;;16.25;37.91;102980.72;4731348;29;119613;-85
2022/03/23 10:02:32;;;;;;;40.20;31.73;;;;;;;16.28;37.37;102981.81;4739111;29;122380;-84
2022/03/23 10:05:43;;;;;;;42.25;32.10;;;;;;;16.24;39.57;102979.16;4727218;29;120998;-85
2022/03/23 10:08:27;;;;;;;42.38;32.17;;;;;;;16.35;38.92;102978.91;4726945;29;119979;-84
2022/03/23 10:10:55;;;;;;;;;;;;;;;16.36;38.81;102979.69;4742597;29;120777;-85
2022/03/23 10:14:02;;;;;;;43.05;31.60;;;;;;;16.37;38.63;102976.47;4745034;29;122908;-85
2022/03/23 10:17:03;;;;;;;42.22;31.80;;;;;;;16.42;37.62;102973.16;4747724;29;119882;-85
2022/03/23 10:19:29;;;;;;;36.33;30.58;;;;;;;16.42;38.72;102964.84;4697221;29;121089;-84
2022/03/23 10:21:55;;;;;;;39.85;30.50;;;;;;;16.40;37.31;102961.75;4730370;29;119874;-84
2022/03/23 10:24:20;;;;;;;43.80;31.63;;;;;;;16.51;37.25;102962.22;4733859;29;121906;-85
2022/03/23 10:26:49;;;;;;;37.85;31.00;;;;;;;16.41;36.87;102938.38;4733287;29;123001;-84
2022/03/23 10:29:20;;;;;;;42.45;30.67;;;;;;;16.55;37.08;102954.59;4744550;29;119904;-84
2022/03/23 10:31:46;;;;;;;37.13;29.90;;;;;;;16.61;36.64;102962.41;4745899;29;121941;-85
2022/03/23 10:34:11;;;;;;;44.53;31.80;;;;;;;16.49;38.20;102944.47;4743798;29;122417;-85
2022/03/23 10:36:40;;;;;;;40.28;31.85;;;;;;;16.69;37.42;102958.22;4724560;29;120277;-85
2022/03/23 10:39:12;;;;;;;42.10;29.98;;;;;;;16.71;36.62;102962.13;4732343;29;120038;-85
2022/03/23 10:41:38;;;;;;;38.58;30.95;;;;;;;16.76;36.57;102963.56;4753594;29;119848;-84
2022/03/23 10:44:15;;;;;;;40.30;31.42;;;;;;;16.77;37.31;102959.56;4742167;29;120581;-83
2022/03/23 10:46:41;;;;;;;41.22;30.95;;;;;;;16.83;36.86;102958.63;4741283;29;122623;-86
2022/03/23 10:49:07;;;;;;;40.53;31.25;;;;;;;16.88;36.91;102954.53;4740733;29;119645;-85
2022/03/23 10:51:34;;;;;;;39.80;30.85;;;;;;;16.86;36.77;102951.44;4743288;29;120080;-84
2022/03/23 10:54:14;;;;;;;40.03;31.35;;;;;;;16.96;37.27;102955.88;4740745;29;120715;-84
2022/03/23 10:56:39;;;;;;;40.08;31.83;;;;;;;17.00;37.75;102955.75;4739221;29;119916;-86
2022/03/23 10:59:26;;;;;;;41.17;31.42;;;;;;;17.05;38.62;102952.47;4745814;29;119630;-85
2022/03/23 11:02:01;;;;;;;37.40;31.33;;;;;;;17.10;36.65;102947.16;4741979;29;120120;-84
2022/03/23 11:04:31;;;;;;;35.50;29.45;;;;;;;17.11;36.19;102945.94;4742251;29;123062;-84
2022/03/23 11:06:59;;;;;;;37.13;29.52;;;;;;;17.15;34.93;102949.38;4741456;29;125771;-84
2022/03/23 11:18:08;;;;;;;38.45;29.83;;;;;;;17.21;37.58;102938.50;4743504;29;120139;-85
2022/03/23 11:20:53;;;;;;;39.60;29.20;;;;;;;17.26;36.62;102939.94;4743184;29;122228;-84
2022/03/23 11:23:23;;;;;;;37.00;29.27;;;;;;;17.22;36.36;102926.19;4746405;29;122912;-84
2022/03/23 11:25:54;;;;;;;37.30;29.55;;;;;;;17.15;36.17;102902.22;4727450;29;122089;-85
2022/03/23 11:28:23;;;;;;;;;;;;;;;17.35;36.00;102926.97;4741079;29;123575;-85
2022/03/23 11:30:50;;;;;;;37.47;27.83;;;;;;;17.42;36.10;102935.09;4736703;29;120100;-84
2022/03/23 11:33:22;;;;;;;37.15;27.42;;;;;;;17.38;36.52;102917.00;4754888;29;120416;-84
2022/03/23 11:35:49;;;;;;;37.13;28.98;;;;;;;17.49;36.13;102934.84;4726471;29;122831;-84
2022/03/23 11:38:18;;;;;;;35.35;28.20;;;;;;;17.51;36.04;102928.88;4754896;29;120772;-85
2022/03/23 11:40:47;;;;;;;38.03;28.13;;;;;;;17.61;34.06;102932.53;4739059;29;120539;-85
2022/03/23 11:43:14;;;;;;;38.75;27.95;;;;;;;17.55;34.37;102912.91;4739967;29;121945;-85
2022/03/23 11:45:43;;;;;;;37.38;28.05;;;;;;;17.69;35.73;102917.22;4730998;29;120367;-85
2022/03/23 11:48:31;;;;;;;33.65;27.75;;;;;;;17.80;34.22;102920.44;4712262;29;122231;-85
2022/03/23 11:51:03;;;;;;;38.42;27.70;;;;;;;17.86;33.67;102926.97;4742031;29;120290;-85
2022/03/23 11:53:34;;;;;;;35.58;28.60;;;;;;;17.93;33.89;102923.19;4757044;29;122915;-85
2022/03/23 11:56:02;;;;;;;35.63;28.85;;;;;;;17.94;34.14;102916.41;4742462;29;123122;-85
2022/03/23 11:58:38;;;;;;;36.13;29.02;;;;;;;17.99;33.41;102913.09;4742442;29;119979;-85
2022/03/23 12:01:09;;;;;;;37.50;28.83;;;;;;;18.05;33.33;102914.84;4727067;29;122396;-85